sensor_id;sensor_type;location;lat;lon;timestamp;pressure;altitude;pressure_sealevel;temperature;humidity
49055;BME280;35405;52.344;14.530;2023-06-14T05:17:59;101177.44;;;12.42;78.32
49055;BME280;35405;52.344;14.530;2023-06-14T05:20:24;101168.69;;;12.47;78.25
49055;BME280;35405;52.344;14.530;2023-06-14T05:22:51;101172.16;;;12.49;78.05
49055;BME280;35405;52.344;14.530;2023-06-14T05:25:17;101174.56;;;12.60;78.12
49055;BME280;35405;52.344;14.530;2023-06-14T05:27:42;101175.28;;;12.70;77.83
49055;BME280;35405;52.344;14.530;2023-06-14T05:30:07;101175.75;;;12.92;77.51
49055;BME280;35405;52.344;14.530;2023-06-14T05:32:33;101166.72;;;13.11;76.95
49055;BME280;35405;52.344;14.530;2023-06-14T05:34:59;101171.69;;;13.27;75.59
49055;BME280;35405;52.344;14.530;2023-06-14T05:37:24;101178.97;;;13.53;74.64
49055;BME280;35405;52.344;14.530;2023-06-14T05:39:49;101173.47;;;14.08;75.03
49055;BME280;35405;52.344;14.530;2023-06-14T05:42:15;101165.66;;;14.44;73.31
49055;BME280;35405;52.344;14.530;2023-06-14T05:44:40;101171.69;;;14.46;71.60
49055;BME280;35405;52.344;14.530;2023-06-14T05:47:05;101175.88;;;14.16;70.47
49055;BME280;35405;52.344;14.530;2023-06-14T05:49:30;101173.78;;;13.93;72.08
49055;BME280;35405;52.344;14.530;2023-06-14T05:51:56;101183.84;;;14.10;72.44
49055;BME280;35405;52.344;14.530;2023-06-14T05:54:21;101181.88;;;14.20;71.30
49055;BME280;35405;52.344;14.530;2023-06-14T05:56:46;101191.78;;;14.04;71.21
49055;BME280;35405;52.344;14.530;2023-06-14T05:59:11;101186.63;;;14.02;70.94
49055;BME280;35405;52.344;14.530;2023-06-14T06:01:36;101187.84;;;13.86;71.62
49055;BME280;35405;52.344;14.530;2023-06-14T06:04:02;101189.66;;;13.84;72.19
49055;BME280;35405;52.344;14.530;2023-06-14T06:06:27;101189.91;;;14.12;72.26
49055;BME280;35405;52.344;14.530;2023-06-14T06:08:53;101195.53;;;14.31;70.44
49055;BME280;35405;52.344;14.530;2023-06-14T06:11:18;101193.03;;;14.28;70.40
49055;BME280;35405;52.344;14.530;2023-06-14T06:13:43;101205.44;;;14.55;70.50
49055;BME280;35405;52.344;14.530;2023-06-14T06:16:09;101208.72;;;14.98;69.39
49055;BME280;35405;52.344;14.530;2023-06-14T06:18:34;101207.72;;;15.03;68.86
49055;BME280;35405;52.344;14.530;2023-06-14T06:20:59;101205.84;;;15.08;69.31
49055;BME280;35405;52.344;14.530;2023-06-14T06:23:24;101213.06;;;14.99;68.37
49055;BME280;35405;52.344;14.530;2023-06-14T06:25:49;101213.16;;;14.96;68.00
49055;BME280;35405;52.344;14.530;2023-06-14T06:28:15;101208.84;;;14.93;68.40
49055;BME280;35405;52.344;14.530;2023-06-14T06:30:40;101218.09;;;15.06;68.58
49055;BME280;35405;52.344;14.530;2023-06-14T06:33:05;101214.56;;;15.07;68.17
49055;BME280;35405;52.344;14.530;2023-06-14T06:35:30;101219.31;;;14.93;68.13
49055;BME280;35405;52.344;14.530;2023-06-14T06:37:57;101223.56;;;14.97;68.46
49055;BME280;35405;52.344;14.530;2023-06-14T06:40:23;101228.41;;;15.13;68.71
49055;BME280;35405;52.344;14.530;2023-06-14T06:42:48;101218.31;;;14.99;68.10
49055;BME280;35405;52.344;14.530;2023-06-14T06:45:15;101225.16;;;14.69;69.05
49055;BME280;35405;52.344;14.530;2023-06-14T06:47:40;101222.22;;;14.81;69.25
49055;BME280;35405;52.344;14.530;2023-06-14T06:50:05;101229.19;;;14.82;69.09
49055;BME280;35405;52.344;14.530;2023-06-14T06:52:32;101219.19;;;14.98;69.08
49055;BME280;35405;52.344;14.530;2023-06-14T06:54:57;101217.88;;;15.16;68.49
49055;BME280;35405;52.344;14.530;2023-06-14T06:57:22;101228.06;;;15.25;68.03
49055;BME280;35405;52.344;14.530;2023-06-14T06:59:48;101227.56;;;15.43;67.64
49055;BME280;35405;52.344;14.530;2023-06-14T07:02:13;101229.84;;;15.55;67.50
49055;BME280;35405;52.344;14.530;2023-06-14T07:04:38;101234.63;;;15.72;66.42
49055;BME280;35405;52.344;14.530;2023-06-14T07:07:04;101233.09;;;15.96;66.79
49055;BME280;35405;52.344;14.530;2023-06-14T07:09:29;101234.56;;;16.33;64.41
49055;BME280;35405;52.344;14.530;2023-06-14T07:11:54;101227.13;;;16.19;65.55
49055;BME280;35405;52.344;14.530;2023-06-14T07:14:19;101228.34;;;16.37;64.05
49055;BME280;35405;52.344;14.530;2023-06-14T07:16:48;101238.06;;;16.04;63.77
49055;BME280;35405;52.344;14.530;2023-06-14T07:19:14;101234.88;;;15.94;64.64
49055;BME280;35405;52.344;14.530;2023-06-14T07:21:39;101233.34;;;16.17;64.75
49055;BME280;35405;52.344;14.530;2023-06-14T07:24:05;101240.47;;;16.40;63.50
49055;BME280;35405;52.344;14.530;2023-06-14T07:26:31;101241.78;;;16.53;62.54
49055;BME280;35405;52.344;14.530;2023-06-14T07:28:56;101240.19;;;17.29;61.78
49055;BME280;35405;52.344;14.530;2023-06-14T07:31:22;101239.94;;;17.60;59.09
49055;BME280;35405;52.344;14.530;2023-06-14T07:33:47;101242.59;;;17.35;59.64
49055;BME280;35405;52.344;14.530;2023-06-14T07:36:12;101240.34;;;17.24;59.42
49055;BME280;35405;52.344;14.530;2023-06-14T07:38:37;101242.75;;;17.30;58.70
49055;BME280;35405;52.344;14.530;2023-06-14T07:41:03;101248.22;;;17.49;59.20
49055;BME280;35405;52.344;14.530;2023-06-14T07:43:28;101246.72;;;17.42;59.38
49055;BME280;35405;52.344;14.530;2023-06-14T07:45:54;101236.38;;;17.62;59.24
49055;BME280;35405;52.344;14.530;2023-06-14T07:48:20;101245.59;;;17.49;58.95
49055;BME280;35405;52.344;14.530;2023-06-14T07:50:45;101246.63;;;17.45;59.70
49055;BME280;35405;52.344;14.530;2023-06-14T07:53:10;101249.44;;;17.14;60.23
49055;BME280;35405;52.344;14.530;2023-06-14T07:55:35;101247.97;;;17.32;60.55
49055;BME280;35405;52.344;14.530;2023-06-14T07:58:02;101246.75;;;17.40;60.52
49055;BME280;35405;52.344;14.530;2023-06-14T08:00:27;101250.13;;;17.69;59.24
49055;BME280;35405;52.344;14.530;2023-06-14T08:02:53;101248.94;;;18.01;58.81
49055;BME280;35405;52.344;14.530;2023-06-14T08:05:23;101241.28;;;18.62;57.81
49055;BME280;35405;52.344;14.530;2023-06-14T08:07:48;101247.59;;;18.80;55.44
49055;BME280;35405;52.344;14.530;2023-06-14T08:10:13;101244.00;;;19.03;54.91
49055;BME280;35405;52.344;14.530;2023-06-14T08:12:39;101245.38;;;18.92;54.94
49055;BME280;35405;52.344;14.530;2023-06-14T08:15:04;101250.25;;;18.80;54.69
49055;BME280;35405;52.344;14.530;2023-06-14T08:17:29;101248.91;;;18.69;54.61
49055;BME280;35405;52.344;14.530;2023-06-14T08:19:56;101253.31;;;18.68;54.39
49055;BME280;35405;52.344;14.530;2023-06-14T08:22:22;101251.81;;;18.40;55.06
49055;BME280;35405;52.344;14.530;2023-06-14T08:24:47;101252.78;;;18.38;55.34
49055;BME280;35405;52.344;14.530;2023-06-14T08:27:12;101258.91;;;18.60;55.40
49055;BME280;35405;52.344;14.530;2023-06-14T08:29:38;101253.28;;;18.70;55.36
49055;BME280;35405;52.344;14.530;2023-06-14T08:32:05;101258.03;;;18.82;55.39
49055;BME280;35405;52.344;14.530;2023-06-14T08:34:30;101256.63;;;18.95;54.23
49055;BME280;35405;52.344;14.530;2023-06-14T08:36:55;101257.56;;;19.15;54.09
49055;BME280;35405;52.344;14.530;2023-06-14T08:39:21;101258.41;;;19.35;52.39
49055;BME280;35405;52.344;14.530;2023-06-14T08:41:47;101254.44;;;18.84;52.65
49055;BME280;35405;52.344;14.530;2023-06-14T08:44:16;101258.34;;;19.37;52.56
49055;BME280;35405;52.344;14.530;2023-06-14T08:46:41;101257.75;;;19.71;50.87
49055;BME280;35405;52.344;14.530;2023-06-14T08:49:06;101254.25;;;19.71;50.81
49055;BME280;35405;52.344;14.530;2023-06-14T08:51:33;101256.28;;;20.03;50.49
49055;BME280;35405;52.344;14.530;2023-06-14T08:54:01;101257.19;;;20.40;49.39
49055;BME280;35405;52.344;14.530;2023-06-14T08:56:28;101262.63;;;19.99;50.61
49055;BME280;35405;52.344;14.530;2023-06-14T08:58:54;101264.47;;;19.58;50.97
49055;BME280;35405;52.344;14.530;2023-06-14T09:01:20;101265.50;;;19.33;51.88
49055;BME280;35405;52.344;14.530;2023-06-14T09:03:46;101264.16;;;19.25;51.78
49055;BME280;35405;52.344;14.530;2023-06-14T09:06:13;101265.72;;;18.86;51.98
49055;BME280;35405;52.344;14.530;2023-06-14T09:11:06;101261.84;;;18.97;51.51
49055;BME280;35405;52.344;14.530;2023-06-14T09:13:32;101272.63;;;18.89;51.92
49055;BME280;35405;52.344;14.530;2023-06-14T09:15:57;101280.31;;;18.73;52.59
49055;BME280;35405;52.344;14.530;2023-06-14T09:18:23;101279.56;;;18.70;52.62
49055;BME280;35405;52.344;14.530;2023-06-14T09:20:58;101279.03;;;18.38;51.85
49055;BME280;35405;52.344;14.530;2023-06-14T09:23:23;101282.66;;;18.12;52.19
49055;BME280;35405;52.344;14.530;2023-06-14T09:25:49;101276.66;;;18.08;52.45
49055;BME280;35405;52.344;14.530;2023-06-14T09:28:15;101280.41;;;18.03;52.85
49055;BME280;35405;52.344;14.530;2023-06-14T09:30:40;101278.72;;;18.24;52.99
49055;BME280;35405;52.344;14.530;2023-06-14T09:33:05;101276.50;;;18.13;53.40
49055;BME280;35405;52.344;14.530;2023-06-14T09:35:31;101272.13;;;18.13;53.40
49055;BME280;35405;52.344;14.530;2023-06-14T09:37:56;101277.50;;;18.09;53.92
49055;BME280;35405;52.344;14.530;2023-06-14T09:40:22;101269.53;;;18.12;53.62
49055;BME280;35405;52.344;14.530;2023-06-14T09:42:47;101275.88;;;18.06;54.87
49055;BME280;35405;52.344;14.530;2023-06-14T09:45:12;101270.09;;;18.20;54.76
49055;BME280;35405;52.344;14.530;2023-06-14T09:47:38;101262.44;;;18.37;54.57
49055;BME280;35405;52.344;14.530;2023-06-14T09:50:04;101257.16;;;18.59;53.81
49055;BME280;35405;52.344;14.530;2023-06-14T09:52:29;101261.91;;;18.73;53.17
49055;BME280;35405;52.344;14.530;2023-06-14T09:54:55;101255.66;;;18.76;52.74
49055;BME280;35405;52.344;14.530;2023-06-14T09:57:21;101260.28;;;18.69;53.17
49055;BME280;35405;52.344;14.530;2023-06-14T09:59:47;101252.47;;;19.10;52.66
49055;BME280;35405;52.344;14.530;2023-06-14T10:04:39;101262.34;;;19.46;49.44
49055;BME280;35405;52.344;14.530;2023-06-14T10:07:05;101260.75;;;19.62;49.81
49055;BME280;35405;52.344;14.530;2023-06-14T10:09:31;101259.19;;;19.78;49.26
49055;BME280;35405;52.344;14.530;2023-06-14T10:11:57;101252.59;;;19.89;48.19
49055;BME280;35405;52.344;14.530;2023-06-14T10:14:22;101256.31;;;20.40;48.12
49055;BME280;35405;52.344;14.530;2023-06-14T10:16:50;101261.47;;;20.43;46.03
49055;BME280;35405;52.344;14.530;2023-06-14T10:19:21;101261.53;;;20.60;47.04
49055;BME280;35405;52.344;14.530;2023-06-14T10:21:51;101253.81;;;21.27;45.04
49055;BME280;35405;52.344;14.530;2023-06-14T10:24:22;101244.59;;;21.68;43.98
49055;BME280;35405;52.344;14.530;2023-06-14T10:26:53;101244.31;;;21.57;43.80
49055;BME280;35405;52.344;14.530;2023-06-14T10:29:18;101240.88;;;20.51;46.08
49055;BME280;35405;52.344;14.530;2023-06-14T10:31:46;101238.13;;;19.78;47.82
49055;BME280;35405;52.344;14.530;2023-06-14T10:34:12;101235.25;;;19.44;48.25
49055;BME280;35405;52.344;14.530;2023-06-14T10:36:45;101232.75;;;19.61;48.95
49055;BME280;35405;52.344;14.530;2023-06-14T10:39:12;101232.06;;;19.76;48.69
49055;BME280;35405;52.344;14.530;2023-06-14T10:41:40;101233.34;;;19.68;46.91
49055;BME280;35405;52.344;14.530;2023-06-14T10:46:40;101225.16;;;20.31;47.26
49055;BME280;35405;52.344;14.530;2023-06-14T10:49:05;101221.94;;;20.43;46.54
49055;BME280;35405;52.344;14.530;2023-06-14T10:51:37;101219.41;;;20.22;45.92
49055;BME280;35405;52.344;14.530;2023-06-14T10:54:11;101219.00;;;19.75;47.02
49055;BME280;35405;52.344;14.530;2023-06-14T10:56:36;101212.56;;;19.41;47.31
49055;BME280;35405;52.344;14.530;2023-06-14T10:59:01;101217.75;;;19.63;47.39
49055;BME280;35405;52.344;14.530;2023-06-14T11:04:03;101213.28;;;19.65;46.67
49055;BME280;35405;52.344;14.530;2023-06-14T11:06:33;101202.06;;;19.60;47.82
49055;BME280;35405;52.344;14.530;2023-06-14T11:09:30;101205.53;;;20.00;46.23
49055;BME280;35405;52.344;14.530;2023-06-14T11:11:57;101198.69;;;20.15;45.90
49055;BME280;35405;52.344;14.530;2023-06-14T11:14:23;101195.66;;;20.05;46.31
49055;BME280;35405;52.344;14.530;2023-06-14T11:16:49;101198.06;;;20.10;46.11
49055;BME280;35405;52.344;14.530;2023-06-14T11:19:14;101201.63;;;20.09;46.36
49055;BME280;35405;52.344;14.530;2023-06-14T11:21:40;101195.09;;;20.35;45.92
49055;BME280;35405;52.344;14.530;2023-06-14T11:24:09;101198.44;;;20.02;45.96
49055;BME280;35405;52.344;14.530;2023-06-14T11:26:37;101191.28;;;20.04;45.89
49055;BME280;35405;52.344;14.530;2023-06-14T11:29:02;101180.69;;;19.87;46.10
49055;BME280;35405;52.344;14.530;2023-06-14T11:31:27;101190.53;;;19.83;45.89
49055;BME280;35405;52.344;14.530;2023-06-14T11:33:53;101188.81;;;20.37;46.28
49055;BME280;35405;52.344;14.530;2023-06-14T11:36:19;101186.34;;;20.88;45.30
49055;BME280;35405;52.344;14.530;2023-06-14T11:38:44;101190.13;;;21.17;44.55
49055;BME280;35405;52.344;14.530;2023-06-14T11:41:09;101180.28;;;21.54;43.72
49055;BME280;35405;52.344;14.530;2023-06-14T11:43:35;101174.19;;;21.36;44.19
49055;BME280;35405;52.344;14.530;2023-06-14T11:46:01;101174.34;;;21.98;42.73
49055;BME280;35405;52.344;14.530;2023-06-14T11:48:36;101175.19;;;22.76;41.25
49055;BME280;35405;52.344;14.530;2023-06-14T11:51:01;101179.81;;;23.02;40.00
49055;BME280;35405;52.344;14.530;2023-06-14T11:53:27;101174.50;;;22.72;40.18
49055;BME280;35405;52.344;14.530;2023-06-14T11:55:52;101180.16;;;23.96;39.51
49055;BME280;35405;52.344;14.530;2023-06-14T11:58:18;101177.41;;;24.92;37.55
49055;BME280;35405;52.344;14.530;2023-06-14T12:00:43;101179.41;;;23.66;37.88
49055;BME280;35405;52.344;14.530;2023-06-14T12:03:08;101171.22;;;23.70;38.23
49055;BME280;35405;52.344;14.530;2023-06-14T12:05:34;101164.38;;;23.52;37.60
49055;BME280;35405;52.344;14.530;2023-06-14T12:08:00;101152.38;;;23.61;37.43
49055;BME280;35405;52.344;14.530;2023-06-14T12:10:25;101150.97;;;23.55;37.76
49055;BME280;35405;52.344;14.530;2023-06-14T12:12:51;101159.94;;;23.81;37.32
49055;BME280;35405;52.344;14.530;2023-06-14T12:15:16;101155.56;;;23.94;37.32
49055;BME280;35405;52.344;14.530;2023-06-14T12:17:42;101152.13;;;24.07;36.03
49055;BME280;35405;52.344;14.530;2023-06-14T12:20:08;101153.88;;;24.20;36.83
49055;BME280;35405;52.344;14.530;2023-06-14T12:22:38;101157.06;;;23.98;35.24
49055;BME280;35405;52.344;14.530;2023-06-14T12:25:04;101154.78;;;23.92;35.90
49055;BME280;35405;52.344;14.530;2023-06-14T12:27:30;101156.06;;;23.15;34.83
49055;BME280;35405;52.344;14.530;2023-06-14T12:29:59;101157.31;;;22.95;35.79
49055;BME280;35405;52.344;14.530;2023-06-14T12:32:25;101158.94;;;23.12;35.96
49055;BME280;35405;52.344;14.530;2023-06-14T12:34:50;101149.28;;;23.11;35.80
49055;BME280;35405;52.344;14.530;2023-06-14T12:37:15;101153.03;;;22.93;36.18
49055;BME280;35405;52.344;14.530;2023-06-14T12:39:41;101158.78;;;22.85;36.01
49055;BME280;35405;52.344;14.530;2023-06-14T12:42:06;101149.00;;;22.71;37.43
49055;BME280;35405;52.344;14.530;2023-06-14T12:44:31;101148.84;;;22.89;37.14
49055;BME280;35405;52.344;14.530;2023-06-14T12:46:58;101152.75;;;22.97;37.03
49055;BME280;35405;52.344;14.530;2023-06-14T12:49:23;101155.97;;;22.58;37.64
49055;BME280;35405;52.344;14.530;2023-06-14T12:51:49;101154.41;;;22.08;38.56
49055;BME280;35405;52.344;14.530;2023-06-14T12:54:14;101154.69;;;22.79;38.13
49055;BME280;35405;52.344;14.530;2023-06-14T12:56:40;101141.81;;;23.18;36.41
49055;BME280;35405;52.344;14.530;2023-06-14T12:59:06;101135.47;;;23.34;36.67
49055;BME280;35405;52.344;14.530;2023-06-14T13:01:32;101132.69;;;23.65;35.98
49055;BME280;35405;52.344;14.530;2023-06-14T13:03:57;101126.28;;;23.96;35.04
49055;BME280;35405;52.344;14.530;2023-06-14T13:06:22;101128.84;;;24.52;34.08
49055;BME280;35405;52.344;14.530;2023-06-14T13:08:48;101139.78;;;24.60;33.45
49055;BME280;35405;52.344;14.530;2023-06-14T13:11:13;101134.91;;;24.66;33.85
49055;BME280;35405;52.344;14.530;2023-06-14T13:13:39;101124.31;;;24.79;34.45
49055;BME280;35405;52.344;14.530;2023-06-14T13:16:04;101120.28;;;24.61;35.42
49055;BME280;35405;52.344;14.530;2023-06-14T13:18:30;101128.03;;;23.97;36.63
49055;BME280;35405;52.344;14.530;2023-06-14T13:20:55;101126.22;;;22.99;38.52
49055;BME280;35405;52.344;14.530;2023-06-14T13:23:20;101128.38;;;22.92;38.83
49055;BME280;35405;52.344;14.530;2023-06-14T13:25:45;101121.44;;;24.02;37.16
49055;BME280;35405;52.344;14.530;2023-06-14T13:28:11;101124.28;;;27.54;30.16
49055;BME280;35405;52.344;14.530;2023-06-14T13:30:36;101114.66;;;24.78;34.38
49055;BME280;35405;52.344;14.530;2023-06-14T13:33:01;101112.88;;;24.39;35.31
49055;BME280;35405;52.344;14.530;2023-06-14T13:35:27;101114.03;;;24.87;34.08
49055;BME280;35405;52.344;14.530;2023-06-14T13:37:52;101105.19;;;25.00;34.22
49055;BME280;35405;52.344;14.530;2023-06-14T13:40:17;101111.25;;;25.02;33.75
49055;BME280;35405;52.344;14.530;2023-06-14T13:42:42;101108.06;;;23.91;35.30
49055;BME280;35405;52.344;14.530;2023-06-14T13:45:08;101102.72;;;23.64;36.11
49055;BME280;35405;52.344;14.530;2023-06-14T13:47:33;101100.72;;;23.12;36.66
49055;BME280;35405;52.344;14.530;2023-06-14T13:49:59;101101.63;;;22.38;38.02
49055;BME280;35405;52.344;14.530;2023-06-14T13:52:24;101108.28;;;22.59;38.13
49055;BME280;35405;52.344;14.530;2023-06-14T13:54:49;101103.63;;;23.07;37.07
49055;BME280;35405;52.344;14.530;2023-06-14T13:57:15;101102.25;;;23.57;35.82
49055;BME280;35405;52.344;14.530;2023-06-14T13:59:40;101101.41;;;23.57;35.37
49055;BME280;35405;52.344;14.530;2023-06-14T14:02:06;101104.91;;;23.57;36.10
49055;BME280;35405;52.344;14.530;2023-06-14T14:04:31;101094.75;;;24.06;35.07
49055;BME280;35405;52.344;14.530;2023-06-14T14:06:57;101097.78;;;23.87;34.97
49055;BME280;35405;52.344;14.530;2023-06-14T14:09:22;101083.06;;;22.98;35.85
49055;BME280;35405;52.344;14.530;2023-06-14T14:11:47;101082.16;;;22.83;37.13
49055;BME280;35405;52.344;14.530;2023-06-14T14:14:13;101085.78;;;22.97;36.41
49055;BME280;35405;52.344;14.530;2023-06-14T14:16:38;101083.31;;;22.49;36.99
49055;BME280;35405;52.344;14.530;2023-06-14T14:19:04;101075.78;;;21.97;38.07
49055;BME280;35405;52.344;14.530;2023-06-14T14:21:29;101075.06;;;21.93;38.43
49055;BME280;35405;52.344;14.530;2023-06-14T14:23:54;101078.16;;;22.48;38.13
49055;BME280;35405;52.344;14.530;2023-06-14T14:26:20;101071.50;;;22.99;37.14
49055;BME280;35405;52.344;14.530;2023-06-14T14:28:45;101079.81;;;23.36;36.05
49055;BME280;35405;52.344;14.530;2023-06-14T14:31:10;101076.59;;;23.17;36.56
49055;BME280;35405;52.344;14.530;2023-06-14T14:33:36;101074.25;;;23.12;36.06
49055;BME280;35405;52.344;14.530;2023-06-14T14:36:01;101072.91;;;23.33;35.55
49055;BME280;35405;52.344;14.530;2023-06-14T14:38:28;101068.28;;;23.64;35.06
49055;BME280;35405;52.344;14.530;2023-06-14T14:40:54;101069.63;;;23.71;34.44
49055;BME280;35405;52.344;14.530;2023-06-14T14:43:19;101071.41;;;23.98;34.07
49055;BME280;35405;52.344;14.530;2023-06-14T14:45:44;101072.00;;;23.76;33.50
49055;BME280;35405;52.344;14.530;2023-06-14T14:48:09;101065.63;;;23.37;33.26
49055;BME280;35405;52.344;14.530;2023-06-14T14:50:34;101074.19;;;23.69;33.93
49055;BME280;35405;52.344;14.530;2023-06-14T14:53:00;101067.69;;;24.27;32.66
49055;BME280;35405;52.344;14.530;2023-06-14T14:55:25;101063.88;;;24.32;33.26
49055;BME280;35405;52.344;14.530;2023-06-14T14:57:50;101068.47;;;24.02;32.98
49055;BME280;35405;52.344;14.530;2023-06-14T15:00:16;101067.38;;;24.32;33.19
49055;BME280;35405;52.344;14.530;2023-06-14T15:02:41;101060.25;;;24.33;32.23
49055;BME280;35405;52.344;14.530;2023-06-14T15:05:06;101068.88;;;23.55;33.79
49055;BME280;35405;52.344;14.530;2023-06-14T15:07:32;101067.53;;;23.06;34.49
49055;BME280;35405;52.344;14.530;2023-06-14T15:09:58;101076.34;;;22.48;34.15
49055;BME280;35405;52.344;14.530;2023-06-14T15:12:23;101082.75;;;22.14;35.08
49055;BME280;35405;52.344;14.530;2023-06-14T15:14:50;101075.97;;;21.78;37.23
49055;BME280;35405;52.344;14.530;2023-06-14T15:17:15;101078.44;;;21.50;39.08
49055;BME280;35405;52.344;14.530;2023-06-14T15:19:41;101086.56;;;20.63;43.00
49055;BME280;35405;52.344;14.530;2023-06-14T15:22:06;101096.25;;;19.91;44.42
49055;BME280;35405;52.344;14.530;2023-06-14T15:24:31;101104.66;;;19.80;45.70
49055;BME280;35405;52.344;14.530;2023-06-14T15:26:57;101096.84;;;19.79;47.10
49055;BME280;35405;52.344;14.530;2023-06-14T15:29:23;101098.69;;;19.77;49.46
49055;BME280;35405;52.344;14.530;2023-06-14T15:31:48;101089.06;;;19.57;49.66
49055;BME280;35405;52.344;14.530;2023-06-14T15:34:13;101086.75;;;19.70;48.88
49055;BME280;35405;52.344;14.530;2023-06-14T15:36:39;101084.28;;;19.84;48.39
49055;BME280;35405;52.344;14.530;2023-06-14T15:39:04;101078.63;;;20.11;47.47
49055;BME280;35405;52.344;14.530;2023-06-14T15:41:29;101081.97;;;20.49;46.35
49055;BME280;35405;52.344;14.530;2023-06-14T15:43:55;101077.47;;;20.86;45.60
49055;BME280;35405;52.344;14.530;2023-06-14T15:46:20;101064.78;;;21.10;45.10
49055;BME280;35405;52.344;14.530;2023-06-14T15:48:46;101067.88;;;21.50;44.13
49055;BME280;35405;52.344;14.530;2023-06-14T15:51:11;101072.75;;;22.03;43.45
49055;BME280;35405;52.344;14.530;2023-06-14T15:53:36;101072.78;;;22.19;42.09
49055;BME280;35405;52.344;14.530;2023-06-14T15:56:02;101076.97;;;22.07;42.82
49055;BME280;35405;52.344;14.530;2023-06-14T15:58:27;101069.28;;;22.03;42.79
49055;BME280;35405;52.344;14.530;2023-06-14T16:00:52;101068.44;;;22.18;42.80
49055;BME280;35405;52.344;14.530;2023-06-14T16:03:17;101068.69;;;22.44;42.16
49055;BME280;35405;52.344;14.530;2023-06-14T16:05:42;101072.81;;;22.33;41.51
49055;BME280;35405;52.344;14.530;2023-06-14T16:08:08;101067.53;;;22.33;41.60
49055;BME280;35405;52.344;14.530;2023-06-14T16:10:33;101065.34;;;22.10;41.59
49055;BME280;35405;52.344;14.530;2023-06-14T16:12:58;101061.09;;;22.07;41.95
49055;BME280;35405;52.344;14.530;2023-06-14T16:15:23;101065.69;;;22.04;41.84
49055;BME280;35405;52.344;14.530;2023-06-14T16:17:48;101066.06;;;21.98;41.70
49055;BME280;35405;52.344;14.530;2023-06-14T16:20:14;101071.03;;;21.72;42.32
49055;BME280;35405;52.344;14.530;2023-06-14T16:22:39;101070.97;;;21.58;42.68
49055;BME280;35405;52.344;14.530;2023-06-14T16:25:04;101069.16;;;21.58;42.64
49055;BME280;35405;52.344;14.530;2023-06-14T16:27:31;101071.09;;;21.39;43.13
49055;BME280;35405;52.344;14.530;2023-06-14T16:29:56;101066.31;;;21.30;43.39
49055;BME280;35405;52.344;14.530;2023-06-14T16:32:21;101070.50;;;21.34;43.12
49055;BME280;35405;52.344;14.530;2023-06-14T16:34:46;101077.25;;;21.55;43.01
49055;BME280;35405;52.344;14.530;2023-06-14T16:37:11;101073.16;;;21.81;42.17
49055;BME280;35405;52.344;14.530;2023-06-14T16:39:37;101071.38;;;21.82;42.17
49055;BME280;35405;52.344;14.530;2023-06-14T16:42:02;101070.91;;;21.89;42.03
49055;BME280;35405;52.344;14.530;2023-06-14T16:44:27;101076.97;;;22.07;42.24
49055;BME280;35405;52.344;14.530;2023-06-14T16:46:52;101077.38;;;22.15;42.05
49055;BME280;35405;52.344;14.530;2023-06-14T16:49:18;101077.69;;;22.09;42.02
49055;BME280;35405;52.344;14.530;2023-06-14T16:51:43;101079.13;;;21.69;42.20
49055;BME280;35405;52.344;14.530;2023-06-14T16:54:08;101083.88;;;21.62;41.48
49055;BME280;35405;52.344;14.530;2023-06-14T16:56:34;101070.44;;;21.35;37.16
49055;BME280;35405;52.344;14.530;2023-06-14T16:58:59;101081.03;;;21.18;37.97
49055;BME280;35405;52.344;14.530;2023-06-14T17:01:25;101083.06;;;21.29;38.59
49055;BME280;35405;52.344;14.530;2023-06-14T17:03:50;101083.47;;;21.38;38.65
49055;BME280;35405;52.344;14.530;2023-06-14T17:06:16;101083.75;;;21.16;38.48
49055;BME280;35405;52.344;14.530;2023-06-14T17:08:42;101089.34;;;21.10;38.19
49055;BME280;35405;52.344;14.530;2023-06-14T17:11:07;101087.16;;;20.85;38.41
49055;BME280;35405;52.344;14.530;2023-06-14T17:13:33;101084.09;;;20.60;39.18
49055;BME280;35405;52.344;14.530;2023-06-14T17:15:59;101090.78;;;20.48;39.96
49055;BME280;35405;52.344;14.530;2023-06-14T17:18:24;101094.13;;;20.34;40.29
49055;BME280;35405;52.344;14.530;2023-06-14T17:20:49;101092.13;;;20.22;41.19
49055;BME280;35405;52.344;14.530;2023-06-14T17:23:14;101095.06;;;20.16;41.11
49055;BME280;35405;52.344;14.530;2023-06-14T17:25:39;101088.06;;;20.15;41.50
49055;BME280;35405;52.344;14.530;2023-06-14T17:28:05;101094.97;;;20.17;41.37
49055;BME280;35405;52.344;14.530;2023-06-14T17:30:30;101090.94;;;20.27;41.39
49055;BME280;35405;52.344;14.530;2023-06-14T17:32:55;101094.13;;;20.34;41.48
49055;BME280;35405;52.344;14.530;2023-06-14T17:35:21;101096.00;;;20.32;41.78
49055;BME280;35405;52.344;14.530;2023-06-14T17:37:46;101100.22;;;20.17;42.57
49055;BME280;35405;52.344;14.530;2023-06-14T17:40:12;101100.63;;;20.10;42.52
49055;BME280;35405;52.344;14.530;2023-06-14T17:42:37;101094.88;;;20.01;43.80
49055;BME280;35405;52.344;14.530;2023-06-14T17:45:02;101102.00;;;19.99;43.90
49055;BME280;35405;52.344;14.530;2023-06-14T17:47:28;101099.50;;;19.96;43.94
49055;BME280;35405;52.344;14.530;2023-06-14T17:49:53;101099.75;;;19.92;44.40
49055;BME280;35405;52.344;14.530;2023-06-14T17:52:20;101100.97;;;19.85;44.90
49055;BME280;35405;52.344;14.530;2023-06-14T17:54:45;101104.66;;;19.80;45.38
49055;BME280;35405;52.344;14.530;2023-06-14T17:57:11;101106.66;;;19.75;46.09
49055;BME280;35405;52.344;14.530;2023-06-14T17:59:36;101103.47;;;19.69;46.51